createdAt,value
2016-03-15T00:00:25.920Z,1014.85
2016-03-15T00:01:25.938Z,1014.84
2016-03-15T00:02:25.956Z,1014.79
2016-03-15T00:03:25.974Z,1014.8
2016-03-15T00:04:25.994Z,1014.74
2016-03-15T00:05:26.011Z,1014.74
2016-03-15T00:06:26.030Z,1014.74
2016-03-15T00:07:26.052Z,1014.73
2016-03-15T00:08:26.071Z,1014.72
2016-03-15T00:09:26.074Z,1014.71
2016-03-15T00:10:26.107Z,1014.76
2016-03-15T00:11:26.111Z,1014.77
2016-03-15T00:12:26.129Z,1014.78
2016-03-15T00:13:26.147Z,1014.79
2016-03-15T00:14:26.181Z,1014.75
2016-03-15T00:15:26.184Z,1014.77
2016-03-15T00:16:26.202Z,1014.76
2016-03-15T00:17:26.221Z,1014.81
2016-03-15T00:18:26.239Z,1014.82
2016-03-15T00:19:26.257Z,1014.79
2016-03-15T00:20:26.275Z,1014.81
2016-03-15T00:21:26.293Z,1014.79
2016-03-15T00:22:26.312Z,1014.83
2016-03-15T00:23:26.330Z,1014.81
2016-03-15T00:24:26.349Z,1014.8
2016-03-15T00:25:26.367Z,1014.8
2016-03-15T00:26:26.385Z,1014.79
2016-03-15T00:27:26.403Z,1014.77
2016-03-15T00:28:26.422Z,1014.74
2016-03-15T00:29:26.440Z,1014.71
2016-03-15T00:30:26.459Z,1014.71
2016-03-15T00:31:26.477Z,1014.78
2016-03-15T00:32:26.495Z,1014.77
2016-03-15T00:33:26.514Z,1014.8
2016-03-15T00:34:26.532Z,1014.77
2016-03-15T00:35:26.551Z,1014.78
2016-03-15T00:36:26.554Z,1014.76
2016-03-15T00:37:26.572Z,1014.76
2016-03-15T00:38:26.590Z,1014.73
2016-03-15T00:39:26.624Z,1014.73
2016-03-15T00:40:26.627Z,1014.71
2016-03-15T00:41:26.645Z,1014.67
2016-03-15T00:42:26.664Z,1014.68
2016-03-15T00:43:26.682Z,1014.64
2016-03-15T00:44:26.700Z,1014.65
2016-03-15T00:45:26.719Z,1014.61
2016-03-15T00:46:26.736Z,1014.6
2016-03-15T00:47:26.755Z,1014.55
2016-03-15T00:48:26.773Z,1014.55
2016-03-15T00:49:26.792Z,1014.51
2016-03-15T00:50:26.811Z,1014.45
2016-03-15T00:51:26.828Z,1014.4
2016-03-15T00:52:26.847Z,1014.4
2016-03-15T00:53:26.865Z,1014.41
2016-03-15T00:54:26.883Z,1014.44
2016-03-15T00:55:26.902Z,1014.46
2016-03-15T00:56:26.910Z,1014.48
2016-03-15T00:57:26.928Z,1014.49
2016-03-15T00:58:26.946Z,1014.43
2016-03-15T00:59:26.964Z,1014.42
2016-03-15T01:00:26.982Z,1014.41
2016-03-15T01:01:27.000Z,1014.33
2016-03-15T01:02:27.020Z,1014.34
2016-03-15T01:03:27.037Z,1014.28
2016-03-15T01:04:27.056Z,1014.25
2016-03-15T01:05:27.074Z,1014.22
2016-03-15T01:06:27.092Z,1014.2
2016-03-15T01:07:27.111Z,1014.18
2016-03-15T01:08:27.129Z,1014.13
2016-03-15T01:09:27.131Z,1014.14
2016-03-15T01:10:27.150Z,1014.11
2016-03-15T01:11:27.169Z,1014.11
2016-03-15T01:12:27.186Z,1014.1
2016-03-15T01:13:27.221Z,1014.05
2016-03-15T01:14:27.224Z,1014.01
2016-03-15T01:15:27.241Z,1013.98
2016-03-15T01:16:27.260Z,1013.96
2016-03-15T01:17:27.278Z,1013.95
2016-03-15T01:18:27.296Z,1013.99
2016-03-15T01:19:27.315Z,1014
2016-03-15T01:20:27.333Z,1014.02
2016-03-15T01:21:27.352Z,1014
2016-03-15T01:22:27.370Z,1013.97
2016-03-15T01:23:27.388Z,1013.98
2016-03-15T01:24:27.407Z,1013.99
2016-03-15T01:25:27.424Z,1013.97
2016-03-15T01:26:27.443Z,1013.92
2016-03-15T01:27:27.462Z,1013.93
2016-03-15T01:28:27.464Z,1013.91
2016-03-15T01:29:27.498Z,1013.91
2016-03-15T01:30:27.517Z,1013.85
2016-03-15T01:31:27.519Z,1013.81
2016-03-15T01:32:27.537Z,1013.81
2016-03-15T01:33:27.556Z,1013.8
2016-03-15T01:34:27.573Z,1013.82
2016-03-15T01:35:27.593Z,1013.74
2016-03-15T01:36:27.611Z,1013.71
2016-03-15T01:37:27.628Z,1013.69
2016-03-15T01:38:27.648Z,1013.66
2016-03-15T01:39:27.666Z,1013.62
2016-03-15T01:40:27.683Z,1013.67
2016-03-15T01:41:27.703Z,1013.7
2016-03-15T01:42:27.720Z,1013.69
2016-03-15T01:43:27.739Z,1013.64
2016-03-15T01:44:27.757Z,1013.68
2016-03-15T01:45:27.775Z,1013.66
2016-03-15T01:46:27.793Z,1013.66
2016-03-15T01:47:27.813Z,1013.65
2016-03-15T01:48:27.830Z,1013.59
2016-03-15T01:49:27.832Z,1013.59
2016-03-15T01:50:27.852Z,1013.61
2016-03-15T01:51:27.869Z,1013.56
2016-03-15T01:52:27.888Z,1013.54
2016-03-15T01:53:27.907Z,1013.46
2016-03-15T01:54:27.924Z,1013.47
2016-03-15T01:55:27.943Z,1013.43
2016-03-15T01:56:27.962Z,1013.4
2016-03-15T01:57:27.979Z,1013.35
2016-03-15T01:58:27.998Z,1013.33
2016-03-15T01:59:28.016Z,1013.36
2016-03-15T02:00:28.035Z,1013.36
2016-03-15T02:01:28.053Z,1013.34
2016-03-15T02:02:28.070Z,1013.32
2016-03-15T02:03:28.090Z,1013.29
2016-03-15T02:04:28.108Z,1013.31
2016-03-15T02:05:28.111Z,1013.29
2016-03-15T02:06:28.128Z,1013.32
2016-03-15T02:07:28.147Z,1013.31
2016-03-15T02:08:28.181Z,1013.34
2016-03-15T02:09:28.184Z,1013.37
2016-03-15T02:10:28.202Z,1013.33
2016-03-15T02:11:28.220Z,1013.35
2016-03-15T02:12:28.239Z,1013.31
2016-03-15T02:13:28.257Z,1013.31
2016-03-15T02:14:28.275Z,1013.31
2016-03-15T02:15:28.294Z,1013.26
2016-03-15T02:16:28.327Z,1013.22
2016-03-15T02:17:28.330Z,1013.22
2016-03-15T02:18:28.349Z,1013.19
2016-03-15T02:19:28.367Z,1013.17
2016-03-15T02:20:28.386Z,1013.13
2016-03-15T02:21:28.404Z,1013.12
2016-03-15T02:22:28.422Z,1013.14
2016-03-15T02:23:28.424Z,1013.1
2016-03-15T02:24:28.458Z,1013.09
2016-03-15T02:25:28.461Z,1013.1
2016-03-15T02:26:28.479Z,1013.04
2016-03-15T02:27:28.498Z,1012.99
2016-03-15T02:28:28.515Z,1012.98
2016-03-15T02:29:28.534Z,1012.95
2016-03-15T02:30:28.568Z,1012.96
2016-03-15T02:31:28.570Z,1012.93
2016-03-15T02:32:28.589Z,1012.93
2016-03-15T02:33:28.607Z,1012.92
2016-03-15T02:34:28.626Z,1012.98
2016-03-15T02:35:28.645Z,1012.95
2016-03-15T02:36:28.663Z,1012.98
2016-03-15T02:37:28.665Z,1013
2016-03-15T02:38:28.684Z,1012.98
2016-03-15T02:39:28.702Z,1013
2016-03-15T02:40:28.720Z,1013.02
2016-03-15T02:41:28.738Z,1013.05
2016-03-15T02:42:28.756Z,1013.08
2016-03-15T02:43:28.775Z,1013.08
2016-03-15T02:44:28.793Z,1013.15
2016-03-15T02:45:28.812Z,1013.14
2016-03-15T02:46:28.830Z,1013.11
2016-03-15T02:47:28.849Z,1013.14
2016-03-15T02:48:28.867Z,1013.11
2016-03-15T02:49:28.885Z,1013.04
2016-03-15T02:50:28.903Z,1013.05
2016-03-15T02:51:28.921Z,1013.05
2016-03-15T02:52:28.924Z,1013.05
2016-03-15T02:53:28.943Z,1013.05
2016-03-15T02:54:28.961Z,1013.06
2016-03-15T02:55:28.980Z,1013.06
2016-03-15T02:56:28.998Z,1013.02
2016-03-15T02:57:29.016Z,1013.06
2016-03-15T02:58:29.034Z,1013.08
2016-03-15T02:59:29.052Z,1013.07
2016-03-15T03:00:29.071Z,1013.1
2016-03-15T03:01:29.089Z,1013.07
2016-03-15T03:02:29.107Z,1013.08
2016-03-15T03:03:29.125Z,1013.01
2016-03-15T03:04:29.144Z,1013.02
2016-03-15T03:05:29.162Z,1013.07
2016-03-15T03:06:29.181Z,1013.06
2016-03-15T03:07:29.183Z,1013.01
2016-03-15T03:08:29.218Z,1013.07
2016-03-15T03:09:29.220Z,1013.04
2016-03-15T03:10:29.239Z,1013.05
2016-03-15T03:11:29.256Z,1013.02
2016-03-15T03:12:29.275Z,1013
2016-03-15T03:13:29.294Z,1012.97
2016-03-15T03:14:29.311Z,1012.93
2016-03-15T03:15:29.330Z,1012.96
2016-03-15T03:16:29.347Z,1012.93
2016-03-15T03:17:29.366Z,1012.98
2016-03-15T03:18:29.385Z,1012.98
2016-03-15T03:19:29.387Z,1012.91
2016-03-15T03:20:29.406Z,1012.91
2016-03-15T03:21:29.425Z,1012.91
2016-03-15T03:22:29.443Z,1012.86
2016-03-15T03:23:29.461Z,1012.88
2016-03-15T03:24:29.480Z,1012.86
2016-03-15T03:25:29.497Z,1012.94
2016-03-15T03:26:29.516Z,1012.86
2016-03-15T03:27:29.534Z,1012.94
2016-03-15T03:28:29.552Z,1012.91
2016-03-15T03:29:29.571Z,1012.98
2016-03-15T03:30:29.590Z,1012.96
2016-03-15T03:31:29.607Z,1012.91
2016-03-15T03:32:29.609Z,1012.97
2016-03-15T03:33:29.644Z,1012.95
2016-03-15T03:34:29.646Z,1012.95
2016-03-15T03:35:29.665Z,1012.95
2016-03-15T03:36:29.684Z,1012.96
2016-03-15T03:37:29.717Z,1012.98
2016-03-15T03:38:29.736Z,1012.93
2016-03-15T03:39:29.739Z,1012.88
2016-03-15T03:40:29.756Z,1012.85
2016-03-15T03:41:29.775Z,1012.89
2016-03-15T03:42:29.792Z,1012.86
2016-03-15T03:43:29.811Z,1012.9
2016-03-15T03:44:29.814Z,1012.94
2016-03-15T03:45:29.833Z,1012.92
2016-03-15T03:46:29.866Z,1012.94
2016-03-15T03:47:29.869Z,1012.87
2016-03-15T03:48:29.888Z,1012.87
2016-03-15T03:49:29.905Z,1012.83
2016-03-15T03:50:29.924Z,1012.84
2016-03-15T03:51:29.942Z,1012.84
2016-03-15T03:52:29.977Z,1012.82
2016-03-15T03:53:29.979Z,1012.82
2016-03-15T03:54:29.997Z,1012.83
2016-03-15T03:55:30.015Z,1012.86
2016-03-15T03:56:30.035Z,1012.84
2016-03-15T03:57:30.052Z,1012.89
2016-03-15T03:58:30.054Z,1012.81
2016-03-15T03:59:30.074Z,1012.85
2016-03-15T04:00:30.091Z,1012.85
2016-03-15T04:01:30.110Z,1012.86
2016-03-15T04:02:30.129Z,1012.85
2016-03-15T04:03:30.146Z,1012.87
2016-03-15T04:04:30.165Z,1012.84
2016-03-15T04:05:30.183Z,1012.85
2016-03-15T04:06:30.201Z,1012.8
2016-03-15T04:07:30.219Z,1012.83
2016-03-15T04:08:30.223Z,1012.82
2016-03-15T04:09:30.240Z,1012.8
2016-03-15T04:10:30.259Z,1012.81
2016-03-15T04:11:30.278Z,1012.77
2016-03-15T04:12:30.295Z,1012.81
2016-03-15T04:13:30.314Z,1012.79
2016-03-15T04:14:30.333Z,1012.74
2016-03-15T04:15:30.350Z,1012.74
2016-03-15T04:16:30.369Z,1012.8
2016-03-15T04:17:30.387Z,1012.71
2016-03-15T04:18:30.405Z,1012.7
2016-03-15T04:19:30.409Z,1012.72
2016-03-15T04:20:30.442Z,1012.74
2016-03-15T04:21:30.449Z,1012.73
2016-03-15T04:22:30.468Z,1012.73
2016-03-15T04:23:30.486Z,1012.74
2016-03-15T04:24:30.505Z,1012.71
2016-03-15T04:25:30.523Z,1012.72
2016-03-15T04:26:30.541Z,1012.73
2016-03-15T04:27:30.543Z,1012.72
2016-03-15T04:28:30.579Z,1012.7
2016-03-15T04:29:30.581Z,1012.7
2016-03-15T04:30:30.598Z,1012.7
2016-03-15T04:31:30.618Z,1012.7
2016-03-15T04:32:30.635Z,1012.65
2016-03-15T04:33:30.654Z,1012.67
2016-03-15T04:34:30.673Z,1012.65
2016-03-15T04:35:30.694Z,1012.63
2016-03-15T04:36:30.696Z,1012.64
2016-03-15T04:37:30.716Z,1012.68
2016-03-15T04:38:30.733Z,1012.63
2016-03-15T04:39:30.752Z,1012.62
2016-03-15T04:40:30.802Z,1012.56
2016-03-15T04:41:30.788Z,1012.6
2016-03-15T04:42:30.823Z,1012.6
2016-03-15T04:43:30.826Z,1012.61
2016-03-15T04:44:30.843Z,1012.58
2016-03-15T04:45:30.862Z,1012.57
2016-03-15T04:46:30.880Z,1012.52
2016-03-15T04:47:30.882Z,1012.53
2016-03-15T04:48:30.902Z,1012.53
2016-03-15T04:49:30.920Z,1012.52
2016-03-15T04:50:30.937Z,1012.56
2016-03-15T04:51:30.957Z,1012.53
2016-03-15T04:52:30.975Z,1012.53
2016-03-15T04:53:30.992Z,1012.5
2016-03-15T04:54:31.011Z,1012.5
2016-03-15T04:55:31.029Z,1012.49
2016-03-15T04:56:31.047Z,1012.48
2016-03-15T04:57:31.051Z,1012.45
2016-03-15T04:58:31.084Z,1012.49
2016-03-15T04:59:31.102Z,1012.53
2016-03-15T05:00:31.106Z,1012.52
2016-03-15T05:01:31.124Z,1012.53
2016-03-15T05:02:31.141Z,1012.53
2016-03-15T05:03:31.161Z,1012.57
2016-03-15T05:04:31.178Z,1012.53
2016-03-15T05:05:31.197Z,1012.55
2016-03-15T05:06:31.216Z,1012.53
2016-03-15T05:07:31.233Z,1012.55
2016-03-15T05:08:31.252Z,1012.56
2016-03-15T05:09:31.255Z,1012.57
2016-03-15T05:10:31.273Z,1012.59
2016-03-15T05:11:31.291Z,1012.55
2016-03-15T05:12:31.310Z,1012.54
2016-03-15T05:13:31.343Z,1012.55
2016-03-15T05:14:31.346Z,1012.54
2016-03-15T05:15:31.365Z,1012.52
2016-03-15T05:16:31.382Z,1012.5
2016-03-15T05:17:31.385Z,1012.51
2016-03-15T05:18:31.420Z,1012.49
2016-03-15T05:19:31.422Z,1012.51
2016-03-15T05:20:31.440Z,1012.52
2016-03-15T05:21:31.459Z,1012.49
2016-03-15T05:22:31.476Z,1012.47
2016-03-15T05:23:31.496Z,1012.5
2016-03-15T05:24:31.514Z,1012.52
2016-03-15T05:25:31.531Z,1012.53
2016-03-15T05:26:31.551Z,1012.51
2016-03-15T05:27:31.569Z,1012.54
2016-03-15T05:28:31.587Z,1012.56
2016-03-15T05:29:31.605Z,1012.63
2016-03-15T05:30:31.608Z,1012.59
2016-03-15T05:31:31.642Z,1012.58
2016-03-15T05:32:31.645Z,1012.52
2016-03-15T05:33:31.663Z,1012.53
2016-03-15T05:34:31.681Z,1012.52
2016-03-15T05:35:31.700Z,1012.55
2016-03-15T05:36:31.718Z,1012.57
2016-03-15T05:37:31.736Z,1012.56
2016-03-15T05:38:31.738Z,1012.57
2016-03-15T05:39:31.757Z,1012.58
2016-03-15T05:40:31.775Z,1012.59
2016-03-15T05:41:31.794Z,1012.59
2016-03-15T05:42:31.812Z,1012.59
2016-03-15T05:43:31.830Z,1012.59
2016-03-15T05:44:31.849Z,1012.66
2016-03-15T05:45:31.867Z,1012.6
2016-03-15T05:46:31.885Z,1012.6
2016-03-15T05:47:31.903Z,1012.61
2016-03-15T05:48:31.907Z,1012.64
2016-03-15T05:49:31.924Z,1012.65
2016-03-15T05:50:31.943Z,1012.6
2016-03-15T05:51:31.962Z,1012.64
2016-03-15T05:52:31.979Z,1012.66
2016-03-15T05:53:31.998Z,1012.68
2016-03-15T05:54:32.017Z,1012.6
2016-03-15T05:55:32.034Z,1012.65
2016-03-15T05:56:32.053Z,1012.6
2016-03-15T05:57:32.071Z,1012.6
2016-03-15T05:58:32.073Z,1012.55
2016-03-15T05:59:32.092Z,1012.58
2016-03-15T06:00:32.111Z,1012.55
2016-03-15T06:01:32.128Z,1012.58
2016-03-15T06:02:32.147Z,1012.57
2016-03-15T06:03:32.166Z,1012.59
2016-03-15T06:04:32.183Z,1012.59
2016-03-15T06:05:32.217Z,1012.57
2016-03-15T06:06:32.214Z,1012.67
2016-03-15T06:07:32.217Z,1012.58
2016-03-15T06:08:32.221Z,1012.6
2016-03-15T06:09:32.208Z,1012.58
2016-03-15T06:10:32.210Z,1012.6
2016-03-15T06:11:32.218Z,1012.61
2016-03-15T06:12:32.231Z,1012.65
2016-03-15T06:13:32.243Z,1012.66
2016-03-15T06:14:32.256Z,1012.64
2016-03-15T06:15:32.268Z,1012.63
2016-03-15T06:16:32.284Z,1012.66
2016-03-15T06:17:32.284Z,1012.65
2016-03-15T06:18:32.300Z,1012.66
2016-03-15T06:19:32.315Z,1012.66
2016-03-15T06:20:32.348Z,1012.69
2016-03-15T06:21:32.349Z,1012.73
2016-03-15T06:22:32.365Z,1012.77
2016-03-15T06:23:32.384Z,1012.82
2016-03-15T06:24:32.400Z,1012.86
2016-03-15T06:25:32.418Z,1012.86
2016-03-15T06:26:32.437Z,1012.84
2016-03-15T06:27:32.454Z,1012.84
2016-03-15T06:28:32.457Z,1012.85
2016-03-15T06:29:32.476Z,1012.86
2016-03-15T06:30:32.494Z,1012.81
2016-03-15T06:31:32.512Z,1012.83
2016-03-15T06:32:32.531Z,1012.84
2016-03-15T06:33:32.548Z,1012.79
2016-03-15T06:34:32.568Z,1012.83
2016-03-15T06:35:32.570Z,1012.83
2016-03-15T06:36:32.604Z,1012.84
2016-03-15T06:37:32.606Z,1012.82
2016-03-15T06:38:32.625Z,1012.79
2016-03-15T06:39:32.643Z,1012.79
2016-03-15T06:40:32.661Z,1012.79
2016-03-15T06:41:32.680Z,1012.78
2016-03-15T06:42:32.697Z,1012.78
2016-03-15T06:43:32.717Z,1012.76
2016-03-15T06:44:32.719Z,1012.75
2016-03-15T06:45:32.753Z,1012.68
2016-03-15T06:46:32.755Z,1012.67
2016-03-15T06:47:32.790Z,1012.68
2016-03-15T06:48:32.793Z,1012.71
2016-03-15T06:49:32.826Z,1012.75
2016-03-15T06:50:32.829Z,1012.79
2016-03-15T06:51:32.846Z,1012.77
2016-03-15T06:52:32.881Z,1012.73
2016-03-15T06:53:32.868Z,1012.75
2016-03-15T06:54:32.887Z,1012.74
2016-03-15T06:55:32.904Z,1012.71
2016-03-15T06:56:32.939Z,1012.7
2016-03-15T06:57:32.957Z,1012.71
2016-03-15T06:58:32.959Z,1012.67
2016-03-15T06:59:32.978Z,1012.65
2016-03-15T07:00:32.996Z,1012.6
2016-03-15T07:01:33.015Z,1012.58
2016-03-15T07:02:33.018Z,1012.51
2016-03-15T07:03:33.036Z,1012.5
2016-03-15T07:04:33.054Z,1012.52
2016-03-15T07:05:33.073Z,1012.49
2016-03-15T07:06:33.091Z,1012.5
2016-03-15T07:07:33.097Z,1012.53
2016-03-15T07:08:33.132Z,1012.52
2016-03-15T07:09:33.134Z,1012.52
2016-03-15T07:10:33.152Z,1012.5
2016-03-15T07:11:33.171Z,1012.54
2016-03-15T07:12:33.189Z,1012.52
2016-03-15T07:13:33.207Z,1012.49
2016-03-15T07:14:33.226Z,1012.54
2016-03-15T07:15:33.244Z,1012.51
2016-03-15T07:16:33.246Z,1012.52
2016-03-15T07:17:33.281Z,1012.49
2016-03-15T07:18:33.284Z,1012.49
2016-03-15T07:19:33.301Z,1012.49
2016-03-15T07:20:33.320Z,1012.49
2016-03-15T07:21:33.338Z,1012.46
2016-03-15T07:22:33.356Z,1012.51
2016-03-15T07:23:33.375Z,1012.54
2016-03-15T07:24:33.378Z,1012.45
2016-03-15T07:25:33.395Z,1012.42
2016-03-15T07:26:33.414Z,1012.46
2016-03-15T07:27:33.448Z,1012.45
2016-03-15T07:28:33.450Z,1012.39
2016-03-15T07:29:33.469Z,1012.42
2016-03-15T07:30:33.488Z,1012.44
2016-03-15T07:31:33.505Z,1012.45
2016-03-15T07:32:33.524Z,1012.46
2016-03-15T07:33:33.527Z,1012.48
2016-03-15T07:34:33.560Z,1012.51
2016-03-15T07:35:33.564Z,1012.51
2016-03-15T07:36:33.582Z,1012.6
2016-03-15T07:37:33.599Z,1012.56
2016-03-15T07:38:33.619Z,1012.6
2016-03-15T07:39:33.637Z,1012.62
2016-03-15T07:40:33.654Z,1012.55
2016-03-15T07:41:33.673Z,1012.58
2016-03-15T07:42:33.691Z,1012.52
2016-03-15T07:43:33.709Z,1012.56
2016-03-15T07:44:33.713Z,1012.56
2016-03-15T07:45:33.731Z,1012.58
2016-03-15T07:46:33.748Z,1012.56
2016-03-15T07:47:33.768Z,1012.59
2016-03-15T07:48:33.786Z,1012.57
2016-03-15T07:49:33.804Z,1012.56
2016-03-15T07:50:33.806Z,1012.58
2016-03-15T07:51:33.825Z,1012.57
2016-03-15T07:52:33.843Z,1012.55
2016-03-15T07:53:33.862Z,1012.57
2016-03-15T07:54:33.880Z,1012.52
2016-03-15T07:55:33.898Z,1012.58
2016-03-15T07:56:33.916Z,1012.55
2016-03-15T07:57:33.935Z,1012.58
2016-03-15T07:58:33.953Z,1012.59
2016-03-15T07:59:33.955Z,1012.56
2016-03-15T08:00:33.975Z,1012.65
2016-03-15T08:01:33.992Z,1012.64
2016-03-15T08:02:34.011Z,1012.63
2016-03-15T08:03:34.029Z,1012.65
2016-03-15T08:04:34.047Z,1012.66
2016-03-15T08:05:34.066Z,1012.65
2016-03-15T08:06:34.084Z,1012.66
2016-03-15T08:07:34.102Z,1012.71
2016-03-15T08:08:34.104Z,1012.66
2016-03-15T08:09:34.124Z,1012.7
2016-03-15T08:10:34.141Z,1012.67
2016-03-15T08:11:34.160Z,1012.68
2016-03-15T08:12:34.179Z,1012.65
2016-03-15T08:13:34.196Z,1012.67
2016-03-15T08:14:34.215Z,1012.69
2016-03-15T08:15:34.234Z,1012.7
2016-03-15T08:16:34.251Z,1012.73
2016-03-15T08:17:34.270Z,1012.74
2016-03-15T08:18:34.273Z,1012.67
2016-03-15T08:19:34.290Z,1012.68
2016-03-15T08:20:34.310Z,1012.7
2016-03-15T08:21:34.328Z,1012.65
2016-03-15T08:22:34.346Z,1012.67
2016-03-15T08:23:34.365Z,1012.68
2016-03-15T08:24:34.383Z,1012.6
2016-03-15T08:25:34.400Z,1012.62
2016-03-15T08:26:34.419Z,1012.6
2016-03-15T08:27:34.437Z,1012.55
2016-03-15T08:28:34.439Z,1012.54
2016-03-15T08:29:34.459Z,1012.65
2016-03-15T08:30:34.477Z,1012.6
2016-03-15T08:31:34.494Z,1012.63
2016-03-15T08:32:34.514Z,1012.64
2016-03-15T08:33:34.532Z,1012.62
2016-03-15T08:34:34.549Z,1012.58
2016-03-15T08:35:34.569Z,1012.57
2016-03-15T08:36:34.586Z,1012.63
2016-03-15T08:37:34.605Z,1012.64
2016-03-15T08:38:34.608Z,1012.61
2016-03-15T08:39:34.626Z,1012.61
2016-03-15T08:40:34.644Z,1012.69
2016-03-15T08:41:34.663Z,1012.72
2016-03-15T08:42:34.681Z,1012.64
2016-03-15T08:43:34.699Z,1012.69
2016-03-15T08:44:34.718Z,1012.7
2016-03-15T08:45:34.735Z,1012.74
2016-03-15T08:46:34.754Z,1012.73
2016-03-15T08:47:34.773Z,1012.74
2016-03-15T08:48:34.791Z,1012.74
2016-03-15T08:49:34.794Z,1012.71
2016-03-15T08:50:34.812Z,1012.71
2016-03-15T08:51:34.830Z,1012.75
2016-03-15T08:52:34.848Z,1012.73
2016-03-15T08:53:34.867Z,1012.75
2016-03-15T08:54:34.884Z,1012.77
2016-03-15T08:55:34.904Z,1012.76
2016-03-15T08:56:34.922Z,1012.73
2016-03-15T08:57:34.939Z,1012.73
2016-03-15T08:58:34.958Z,1012.72
2016-03-15T08:59:34.961Z,1012.73
2016-03-15T09:00:34.980Z,1012.79
2016-03-15T09:01:35.013Z,1012.73
2016-03-15T09:02:35.016Z,1012.79
2016-03-15T09:03:35.034Z,1012.81
2016-03-15T09:04:35.053Z,1012.79
2016-03-15T09:05:35.071Z,1012.79
2016-03-15T09:06:35.089Z,1012.77
2016-03-15T09:07:35.108Z,1012.8
2016-03-15T09:08:35.126Z,1012.84
2016-03-15T09:09:35.143Z,1012.84
2016-03-15T09:10:35.163Z,1012.87
2016-03-15T09:11:35.180Z,1012.87
2016-03-15T09:12:35.199Z,1012.85
2016-03-15T09:13:35.218Z,1012.91
2016-03-15T09:14:35.235Z,1012.92
2016-03-15T09:15:35.238Z,1012.88
2016-03-15T09:16:35.257Z,1012.92
2016-03-15T09:17:35.275Z,1012.95
2016-03-15T09:18:35.293Z,1012.9
2016-03-15T09:19:35.312Z,1012.92
2016-03-15T09:20:35.329Z,1012.89
2016-03-15T09:21:35.349Z,1012.89
2016-03-15T09:22:35.367Z,1012.93
2016-03-15T09:23:35.384Z,1012.91
2016-03-15T09:24:35.404Z,1012.91
2016-03-15T09:25:35.422Z,1012.95
2016-03-15T09:26:35.439Z,1012.89
2016-03-15T09:27:35.458Z,1012.89
2016-03-15T09:28:35.476Z,1012.92
2016-03-15T09:29:35.494Z,1012.96
2016-03-15T09:30:35.514Z,1012.93
2016-03-15T09:31:35.531Z,1012.9
2016-03-15T09:32:35.533Z,1012.91
2016-03-15T09:33:35.553Z,1012.86
2016-03-15T09:34:35.571Z,1012.88
2016-03-15T09:35:35.588Z,1012.87
2016-03-15T09:36:35.608Z,1012.83
2016-03-15T09:37:35.625Z,1012.83
2016-03-15T09:38:35.644Z,1012.84
2016-03-15T09:39:35.663Z,1012.87
2016-03-15T09:40:35.680Z,1012.86
2016-03-15T09:41:35.699Z,1012.85
2016-03-15T09:42:35.718Z,1012.9
2016-03-15T09:43:35.735Z,1012.9
2016-03-15T09:44:35.754Z,1012.91
2016-03-15T09:45:35.771Z,1012.92
2016-03-15T09:46:35.791Z,1012.94
2016-03-15T09:47:35.809Z,1012.92
2016-03-15T09:48:35.826Z,1012.97
2016-03-15T09:49:35.846Z,1012.96
2016-03-15T09:50:35.864Z,1012.96
2016-03-15T09:51:35.881Z,1012.95
2016-03-15T09:52:35.901Z,1012.97
2016-03-15T09:53:35.918Z,1012.94
2016-03-15T09:54:35.937Z,1012.98
2016-03-15T09:55:35.956Z,1012.95
2016-03-15T09:56:35.973Z,1012.96
2016-03-15T09:57:35.992Z,1012.89
2016-03-15T09:58:36.011Z,1012.89
2016-03-15T09:59:36.028Z,1012.91
2016-03-15T10:00:36.047Z,1012.9
2016-03-15T10:01:36.065Z,1012.93
2016-03-15T10:02:36.083Z,1012.93
2016-03-15T10:03:36.086Z,1012.91
2016-03-15T10:04:36.120Z,1012.91
2016-03-15T10:05:36.497Z,1012.92
2016-03-15T10:06:36.141Z,1012.94
2016-03-15T10:07:36.160Z,1012.89
2016-03-15T10:08:36.193Z,1012.85
2016-03-15T10:09:36.201Z,1012.88
2016-03-15T10:10:36.219Z,1012.83
2016-03-15T10:11:36.238Z,1012.88
2016-03-15T10:12:36.256Z,1012.89
2016-03-15T10:13:36.274Z,1012.94
2016-03-15T10:14:36.293Z,1012.95
2016-03-15T10:15:36.310Z,1012.96
2016-03-15T10:16:36.329Z,1013.01
2016-03-15T10:17:36.348Z,1013
2016-03-15T10:18:36.365Z,1012.97
2016-03-15T10:19:36.384Z,1012.98
2016-03-15T10:20:36.403Z,1012.98
2016-03-15T10:21:36.420Z,1012.97
2016-03-15T10:22:36.439Z,1012.99
2016-03-15T10:23:36.457Z,1013
2016-03-15T10:24:36.476Z,1012.97
2016-03-15T10:25:36.494Z,1012.98
2016-03-15T10:26:36.512Z,1012.97
2016-03-15T10:27:36.531Z,1012.96
2016-03-15T10:28:36.549Z,1012.99
2016-03-15T10:29:36.567Z,1012.97
2016-03-15T10:30:36.586Z,1012.96
2016-03-15T10:31:36.603Z,1012.94
2016-03-15T10:32:36.622Z,1012.92
2016-03-15T10:33:36.641Z,1012.92
2016-03-15T10:34:36.658Z,1012.9
2016-03-15T10:35:36.677Z,1012.87
2016-03-15T10:36:36.696Z,1012.88
2016-03-15T10:37:36.713Z,1012.9
2016-03-15T10:38:36.732Z,1012.92
2016-03-15T10:39:36.750Z,1012.93
2016-03-15T10:40:36.769Z,1012.89
2016-03-15T10:41:36.787Z,1012.9
2016-03-15T10:42:36.805Z,1012.9
2016-03-15T10:43:36.824Z,1012.9
2016-03-15T10:44:36.842Z,1012.85
2016-03-15T10:45:36.860Z,1012.89
2016-03-15T10:46:36.879Z,1012.88
2016-03-15T10:47:36.896Z,1012.87
2016-03-15T10:48:36.916Z,1012.89
2016-03-15T10:49:36.934Z,1012.84
2016-03-15T10:50:36.951Z,1012.86
2016-03-15T10:51:36.970Z,1012.88
2016-03-15T10:52:36.989Z,1012.9
2016-03-15T10:53:37.006Z,1012.85
2016-03-15T10:54:37.025Z,1012.83
2016-03-15T10:55:37.043Z,1012.85
2016-03-15T10:56:37.062Z,1012.87
2016-03-15T10:57:37.080Z,1012.87
2016-03-15T10:58:37.098Z,1012.88
2016-03-15T10:59:37.117Z,1012.8
2016-03-15T11:00:37.135Z,1012.82
2016-03-15T11:01:37.153Z,1012.84
2016-03-15T11:02:37.171Z,1012.78
2016-03-15T11:03:37.190Z,1012.81
2016-03-15T11:04:37.209Z,1012.84
2016-03-15T11:05:37.227Z,1012.81
2016-03-15T11:06:37.245Z,1012.86
2016-03-15T11:07:37.263Z,1012.9
2016-03-15T11:08:37.282Z,1012.83
2016-03-15T11:09:37.299Z,1012.86
2016-03-15T11:10:37.318Z,1012.83
2016-03-15T11:11:37.336Z,1012.85
2016-03-15T11:12:37.355Z,1012.88
2016-03-15T11:13:37.374Z,1012.85
2016-03-15T11:14:37.391Z,1012.85
2016-03-15T11:15:37.409Z,1012.82
2016-03-15T11:16:37.428Z,1012.83
2016-03-15T11:17:37.446Z,1012.84
2016-03-15T11:18:37.464Z,1012.89
2016-03-15T11:19:37.483Z,1012.88
2016-03-15T11:20:37.485Z,1012.84
2016-03-15T11:21:37.520Z,1012.86
2016-03-15T11:22:37.538Z,1012.79
2016-03-15T11:23:37.556Z,1012.78
2016-03-15T11:24:37.575Z,1012.75
2016-03-15T11:25:37.592Z,1012.77
2016-03-15T11:26:37.611Z,1012.78
2016-03-15T11:27:37.629Z,1012.75
2016-03-15T11:28:37.648Z,1012.75
2016-03-15T11:29:37.666Z,1012.73
2016-03-15T11:30:37.684Z,1012.76
2016-03-15T11:31:37.703Z,1012.78
2016-03-15T11:32:37.721Z,1012.77
2016-03-15T11:33:37.739Z,1012.76
2016-03-15T11:34:37.758Z,1012.79
2016-03-15T11:35:37.775Z,1012.79
2016-03-15T11:36:37.811Z,1012.82
2016-03-15T11:37:37.813Z,1012.84
2016-03-15T11:38:37.831Z,1012.86
2016-03-15T11:39:37.850Z,1012.83
2016-03-15T11:40:37.868Z,1012.84
2016-03-15T11:41:37.886Z,1012.94
2016-03-15T11:42:37.904Z,1012.89
2016-03-15T11:43:37.922Z,1012.88
2016-03-15T11:44:37.941Z,1012.91
2016-03-15T11:45:37.974Z,1012.91
2016-03-15T11:46:37.977Z,1012.87
2016-03-15T11:47:37.996Z,1012.95
2016-03-15T11:48:38.014Z,1012.94
2016-03-15T11:49:38.032Z,1012.94
2016-03-15T11:50:38.051Z,1012.95
2016-03-15T11:51:38.068Z,1012.92
2016-03-15T11:52:38.088Z,1012.98
2016-03-15T11:53:38.106Z,1012.97
2016-03-15T11:54:38.123Z,1012.95
2016-03-15T11:55:38.143Z,1012.95
2016-03-15T11:56:38.161Z,1012.98
2016-03-15T11:57:38.178Z,1012.95
2016-03-15T11:58:38.994Z,1012.97
2016-03-15T11:59:38.215Z,1012.96
2016-03-15T12:00:38.234Z,1012.96
2016-03-15T12:01:38.252Z,1013
2016-03-15T12:02:38.270Z,1013
2016-03-15T12:03:38.289Z,1012.95
2016-03-15T12:04:38.307Z,1012.97
2016-03-15T12:05:38.325Z,1012.93
2016-03-15T12:06:38.344Z,1012.93
2016-03-15T12:07:38.361Z,1012.98
2016-03-15T12:08:38.381Z,1012.94